createdAt,value
2022-08-14T00:12:39.301Z,250
2022-08-14T00:27:41.558Z,530
2022-08-14T00:43:02.922Z,240
2022-08-14T00:58:05.075Z,610
2022-08-14T01:13:06.948Z,620
2022-08-14T01:28:11.282Z,630
2022-08-14T01:43:36.520Z,220
2022-08-14T01:58:38.656Z,200
2022-08-14T02:14:00.060Z,170
2022-08-14T02:29:09.543Z,110
2022-08-14T02:44:12.010Z,80
2022-08-14T02:59:13.948Z,30
2022-08-14T03:14:18.045Z,10
2022-08-14T03:29:20.503Z,0
2022-08-14T03:45:18.579Z,0
2022-08-14T04:00:43.933Z,0
2022-08-14T04:15:56.062Z,0
2022-08-14T04:31:02.753Z,0
2022-08-14T04:46:06.769Z,0
2022-08-14T05:01:12.949Z,0
2022-08-14T05:16:21.568Z,0
2022-08-14T05:31:24.148Z,0
2022-08-14T05:46:41.355Z,0
2022-08-14T06:01:44.731Z,0
2022-08-14T06:16:48.602Z,0
2022-08-14T06:32:00.045Z,0
2022-08-14T06:47:02.713Z,0
2022-08-14T07:02:04.906Z,0
2022-08-14T07:17:06.840Z,0
2022-08-14T07:32:09.298Z,0
2022-08-14T07:47:12.320Z,0
2022-08-14T08:02:19.583Z,0
2022-08-14T08:17:22.305Z,0
2022-08-14T08:32:30.082Z,0
2022-08-14T08:47:36.252Z,0
2022-08-14T09:02:38.220Z,0
2022-08-14T09:17:41.213Z,0
2022-08-14T09:32:59.625Z,0
2022-08-14T09:48:01.914Z,0
2022-08-14T10:03:05.169Z,0
2022-08-14T10:18:07.882Z,0
2022-08-14T10:33:10.646Z,0
2022-08-14T10:48:34.521Z,0
2022-08-14T11:03:56.908Z,0
2022-08-14T11:18:59.720Z,0
2022-08-14T11:34:01.662Z,0
2022-08-14T11:49:06.059Z,0
2022-08-14T12:04:21.423Z,0
2022-08-14T12:19:33.497Z,0
2022-08-14T12:34:35.653Z,0
2022-08-14T12:49:37.463Z,20
2022-08-14T13:04:40.058Z,40
2022-08-14T13:19:45.158Z,60
2022-08-14T13:34:47.813Z,100
2022-08-14T13:49:57.515Z,120
2022-08-14T14:05:00.156Z,130
2022-08-14T14:20:04.667Z,150
2022-08-14T14:35:06.659Z,150
2022-08-14T14:50:09.045Z,180
2022-08-14T15:05:12.739Z,180
2022-08-14T15:20:16.817Z,80
2022-08-14T15:35:22.353Z,80
2022-08-14T15:50:24.477Z,90
2022-08-14T16:05:28.540Z,90
2022-08-14T16:20:42.526Z,90
2022-08-14T16:35:59.790Z,90
2022-08-14T16:51:06.666Z,90
2022-08-14T17:06:25.633Z,100
2022-08-14T17:21:35.323Z,100
2022-08-14T17:36:39.519Z,100
2022-08-14T17:51:41.402Z,100
2022-08-14T18:06:57.898Z,100
2022-08-14T18:22:31.287Z,110
2022-08-14T18:37:34.860Z,110
2022-08-14T18:52:37.104Z,110
2022-08-14T19:07:40.712Z,110
2022-08-14T19:22:42.528Z,110
2022-08-14T19:37:44.322Z,110
2022-08-14T19:52:46.861Z,110
2022-08-14T20:07:59.289Z,110
2022-08-14T20:23:02.803Z,110
2022-08-14T20:38:31.578Z,110
2022-08-14T20:53:35.482Z,120
2022-08-14T21:08:37.523Z,120
2022-08-14T21:23:54.772Z,120
2022-08-14T21:38:57.575Z,120
2022-08-14T21:54:00.102Z,130
2022-08-14T22:09:02.116Z,130
2022-08-14T22:24:10.537Z,140
2022-08-14T22:39:13.410Z,140
2022-08-14T22:54:52.680Z,150
2022-08-14T23:09:56.540Z,160
2022-08-14T23:24:59.399Z,200
2022-08-14T23:40:01.294Z,260
2022-08-14T23:55:03.155Z,320
